createdAt,value
2019-04-03T00:01:16.980Z,142.13
2019-04-03T00:03:44.139Z,142.50
2019-04-03T00:06:11.438Z,141.77
2019-04-03T00:08:39.206Z,140.60
2019-04-03T00:11:08.641Z,141.95
2019-04-03T00:13:35.351Z,141.03
2019-04-03T00:16:02.814Z,142.62
2019-04-03T00:18:29.879Z,141.62
2019-04-03T00:20:56.937Z,142.13
2019-04-03T00:23:24.151Z,142.13
2019-04-03T00:25:52.380Z,141.75
2019-04-03T00:28:22.024Z,141.47
2019-04-03T00:30:49.288Z,141.95
2019-04-03T00:33:16.337Z,141.82
2019-04-03T00:35:43.427Z,141.80
2019-04-03T00:38:10.483Z,143.07
2019-04-03T00:40:37.995Z,141.85
2019-04-03T00:43:05.049Z,142.37
2019-04-03T00:45:32.616Z,142.25
2019-04-03T00:47:59.873Z,142.07
2019-04-03T00:50:27.198Z,142.13
2019-04-03T00:52:54.244Z,142.03
2019-04-03T00:55:21.293Z,141.47
2019-04-03T00:57:48.331Z,141.00
2019-04-03T01:00:16.315Z,141.80
2019-04-03T01:02:43.493Z,140.80
2019-04-03T01:05:11.066Z,141.10
2019-04-03T01:07:38.109Z,142.07
2019-04-03T01:10:05.441Z,140.57
2019-04-03T01:12:32.627Z,141.35
2019-04-03T01:15:01.636Z,140.77
2019-04-03T01:17:29.194Z,140.65
2019-04-03T01:19:56.314Z,141.37
2019-04-03T01:22:23.874Z,142.35
2019-04-03T01:24:50.869Z,141.20
2019-04-03T01:27:17.903Z,141.60
2019-04-03T01:29:45.333Z,141.62
2019-04-03T01:32:15.494Z,141.32
2019-04-03T01:34:41.518Z,140.97
2019-04-03T01:37:09.109Z,141.30
2019-04-03T01:39:36.182Z,141.70
2019-04-03T01:42:03.286Z,141.32
2019-04-03T01:44:33.432Z,141.45
2019-04-03T01:47:00.841Z,142.00
2019-04-03T01:49:31.425Z,140.57
2019-04-03T01:52:00.895Z,144.40
2019-04-03T01:54:28.232Z,141.60
2019-04-03T01:56:55.378Z,141.43
2019-04-03T01:59:22.437Z,142.95
2019-04-03T02:01:49.787Z,141.92
2019-04-03T02:04:16.844Z,141.97
2019-04-03T02:06:44.384Z,142.10
2019-04-03T02:09:11.524Z,141.95
2019-04-03T02:11:40.479Z,141.80
2019-04-03T02:14:07.529Z,142.62
2019-04-03T02:16:34.533Z,142.55
2019-04-03T02:19:01.640Z,142.57
2019-04-03T02:21:29.051Z,142.32
2019-04-03T02:23:57.514Z,141.90
2019-04-03T02:26:24.803Z,141.82
2019-04-03T02:28:52.223Z,142.10
2019-04-03T02:31:20.235Z,141.65
2019-04-03T02:33:47.957Z,140.80
2019-04-03T02:36:16.100Z,141.73
2019-04-03T02:38:43.593Z,141.20
2019-04-03T02:41:10.699Z,141.15
2019-04-03T02:43:37.774Z,141.77
2019-04-03T02:46:05.159Z,142.77
2019-04-03T02:48:37.370Z,142.87
2019-04-03T02:51:02.212Z,142.32
2019-04-03T02:53:30.812Z,142.47
2019-04-03T02:55:58.210Z,141.92
2019-04-03T02:58:25.339Z,141.12
2019-04-03T03:00:53.015Z,142.95
2019-04-03T03:03:20.183Z,142.53
2019-04-03T03:05:47.207Z,142.10
2019-04-03T03:08:15.227Z,142.03
2019-04-03T03:10:42.449Z,141.18
2019-04-03T03:13:09.767Z,141.60
2019-04-03T03:15:37.972Z,142.85
2019-04-03T03:18:04.980Z,140.80
2019-04-03T03:20:33.934Z,143.22
2019-04-03T03:23:08.454Z,141.65
2019-04-03T03:25:46.811Z,141.22
2019-04-03T03:28:16.291Z,141.30
2019-04-03T03:30:54.913Z,142.07
2019-04-03T03:33:31.029Z,141.97
2019-04-03T03:35:47.187Z,141.10
2019-04-03T03:38:15.781Z,142.15
2019-04-03T03:40:47.307Z,142.22
2019-04-03T03:43:15.051Z,141.03
2019-04-03T03:45:42.571Z,142.32
2019-04-03T03:48:11.036Z,142.13
2019-04-03T03:50:39.079Z,141.97
2019-04-03T03:53:10.192Z,142.87
2019-04-03T03:55:36.714Z,144.00
2019-04-03T03:58:06.090Z,142.45
2019-04-03T04:00:35.517Z,141.80
2019-04-03T04:03:03.514Z,143.37
2019-04-03T04:05:30.548Z,143.28
2019-04-03T04:07:57.868Z,142.82
2019-04-03T04:10:27.712Z,143.00
2019-04-03T04:12:56.219Z,143.35
2019-04-03T04:15:23.793Z,142.15
2019-04-03T04:17:52.368Z,142.60
2019-04-03T04:20:19.888Z,141.15
2019-04-03T04:22:55.117Z,142.30
2019-04-03T04:25:30.957Z,144.10
2019-04-03T04:28:03.557Z,142.28
2019-04-03T04:30:31.276Z,141.43
2019-04-03T04:32:59.915Z,143.17
2019-04-03T04:35:27.399Z,142.37
2019-04-03T04:37:56.761Z,142.70
2019-04-03T04:40:24.166Z,142.10
2019-04-03T04:42:52.635Z,141.77
2019-04-03T04:45:19.696Z,142.70
2019-04-03T04:47:46.905Z,142.43
2019-04-03T04:50:20.288Z,142.45
2019-04-03T04:52:48.016Z,145.22
2019-04-03T04:55:16.129Z,144.00
2019-04-03T04:57:43.246Z,142.75
2019-04-03T05:00:10.822Z,144.77
2019-04-03T05:02:39.073Z,143.65
2019-04-03T05:05:08.489Z,144.93
2019-04-03T05:07:35.274Z,143.52
2019-04-03T05:10:05.899Z,142.62
2019-04-03T05:12:33.558Z,141.88
2019-04-03T05:15:00.588Z,143.32
2019-04-03T05:17:27.693Z,144.00
2019-04-03T05:19:55.339Z,142.25
2019-04-03T05:22:23.760Z,144.20
2019-04-03T05:24:54.351Z,144.75
2019-04-03T05:27:22.871Z,143.37
2019-04-03T05:29:52.872Z,142.07
2019-04-03T05:32:20.303Z,141.45
2019-04-03T05:34:48.002Z,141.18
2019-04-03T05:37:19.710Z,142.28
2019-04-03T05:39:45.944Z,141.30
2019-04-03T05:42:13.011Z,141.73
2019-04-03T05:44:40.204Z,140.65
2019-04-03T05:47:07.862Z,145.10
2019-04-03T05:49:36.053Z,143.45
2019-04-03T05:52:04.706Z,142.72
2019-04-03T05:54:31.936Z,141.70
2019-04-03T05:56:59.041Z,143.15
2019-04-03T05:59:26.095Z,141.03
2019-04-03T06:01:53.127Z,141.22
2019-04-03T06:04:20.330Z,142.40
2019-04-03T06:06:47.865Z,143.05
2019-04-03T06:09:15.025Z,145.92
2019-04-03T06:11:42.087Z,143.87
2019-04-03T06:14:10.328Z,144.17
2019-04-03T06:16:37.618Z,142.03
2019-04-03T06:19:06.425Z,143.47
2019-04-03T06:21:33.774Z,142.60
2019-04-03T06:24:00.768Z,142.68
2019-04-03T06:26:29.599Z,141.53
2019-04-03T06:28:56.756Z,142.32
2019-04-03T06:31:24.343Z,142.20
2019-04-03T06:33:54.005Z,142.10
2019-04-03T06:36:21.253Z,142.28
2019-04-03T06:38:48.807Z,142.32
2019-04-03T06:41:16.188Z,142.10
2019-04-03T06:43:49.124Z,144.35
2019-04-03T06:46:14.766Z,143.95
2019-04-03T06:48:41.840Z,142.37
2019-04-03T06:51:08.848Z,144.02
2019-04-03T06:53:35.940Z,143.57
2019-04-03T06:56:03.116Z,145.28
2019-04-03T06:58:38.140Z,143.95
2019-04-03T07:00:59.586Z,143.28
2019-04-03T07:03:26.978Z,143.45
2019-04-03T07:05:54.332Z,143.80
2019-04-03T07:08:29.355Z,141.82
2019-04-03T07:10:55.274Z,143.32
2019-04-03T07:13:23.755Z,142.62
2019-04-03T07:15:50.801Z,143.47
2019-04-03T07:18:19.855Z,142.47
2019-04-03T07:20:47.366Z,141.03
2019-04-03T07:23:14.370Z,141.35
2019-04-03T07:25:41.755Z,142.03
2019-04-03T07:28:09.530Z,140.60
2019-04-03T07:30:36.801Z,141.00
2019-04-03T07:33:05.807Z,142.15
2019-04-03T07:35:33.504Z,139.43
2019-04-03T07:38:00.521Z,143.45
2019-04-03T07:40:27.949Z,143.25
2019-04-03T07:42:55.989Z,142.70
2019-04-03T07:45:27.742Z,144.40
2019-04-03T07:47:54.812Z,143.40
2019-04-03T07:50:22.297Z,143.05
2019-04-03T07:52:49.331Z,141.55
2019-04-03T07:55:16.369Z,141.60
2019-04-03T07:57:46.167Z,143.25
2019-04-03T08:00:14.921Z,141.88
2019-04-03T08:02:47.308Z,141.70
2019-04-03T08:05:13.494Z,143.22
2019-04-03T08:07:40.580Z,143.07
2019-04-03T08:10:08.261Z,143.80
2019-04-03T08:12:35.887Z,141.50
2019-04-03T08:15:04.179Z,144.10
2019-04-03T08:17:31.371Z,142.55
2019-04-03T08:19:58.733Z,141.68
2019-04-03T08:22:25.920Z,142.25
2019-04-03T08:24:53.814Z,141.40
2019-04-03T08:27:23.455Z,142.98
2019-04-03T08:29:52.116Z,142.80
2019-04-03T08:32:19.521Z,142.35
2019-04-03T08:34:47.546Z,142.30
2019-04-03T08:37:15.997Z,143.13
2019-04-03T08:39:44.005Z,144.20
2019-04-03T08:42:15.045Z,140.92
2019-04-03T08:44:42.181Z,140.40
2019-04-03T08:47:13.618Z,139.50
2019-04-03T08:49:40.868Z,141.28
2019-04-03T08:52:08.278Z,140.05
2019-04-03T08:54:35.454Z,143.32
2019-04-03T08:57:03.362Z,140.62
2019-04-03T08:59:30.584Z,142.43
2019-04-03T09:01:57.625Z,141.88
2019-04-03T09:04:24.778Z,141.88
2019-04-03T09:06:54.139Z,141.20
2019-04-03T09:09:20.818Z,142.62
2019-04-03T09:11:49.711Z,137.75
2019-04-03T09:14:19.375Z,135.78
2019-04-03T09:16:46.255Z,135.60
2019-04-03T09:19:13.594Z,135.32
2019-04-03T09:21:41.585Z,135.63
2019-04-03T09:24:09.251Z,133.85
2019-04-03T09:26:38.031Z,133.82
2019-04-03T09:29:05.337Z,133.87
2019-04-03T09:31:32.365Z,132.95
2019-04-03T09:33:59.521Z,134.78
2019-04-03T09:36:26.971Z,134.27
2019-04-03T09:38:54.529Z,133.18
2019-04-03T09:41:21.599Z,133.27
2019-04-03T09:43:49.734Z,133.72
2019-04-03T09:46:16.828Z,134.65
2019-04-03T09:48:43.882Z,135.55
2019-04-03T09:51:11.042Z,136.97
2019-04-03T09:53:38.814Z,136.97
2019-04-03T09:56:08.005Z,136.50
2019-04-03T09:58:35.819Z,136.72
2019-04-03T10:01:06.085Z,135.82
2019-04-03T10:03:35.863Z,135.00
2019-04-03T10:06:03.352Z,135.40
2019-04-03T10:08:30.819Z,136.35
2019-04-03T10:10:58.102Z,136.47
2019-04-03T10:13:26.325Z,135.10
2019-04-03T10:15:53.772Z,135.45
2019-04-03T10:18:22.151Z,137.07
2019-04-03T10:20:49.787Z,134.90
2019-04-03T10:23:17.275Z,132.63
2019-04-03T10:25:44.315Z,133.37
2019-04-03T10:28:14.801Z,133.07
2019-04-03T10:30:41.408Z,132.07
2019-04-03T10:33:10.005Z,131.63
2019-04-03T10:35:38.905Z,133.37
2019-04-03T10:38:06.331Z,133.37
2019-04-03T10:40:34.223Z,132.82
2019-04-03T10:43:04.619Z,132.45
2019-04-03T10:45:31.600Z,132.40
2019-04-03T10:47:59.048Z,133.35
2019-04-03T10:50:26.339Z,131.85
2019-04-03T10:52:54.672Z,132.80
2019-04-03T10:55:25.862Z,133.18
2019-04-03T10:57:54.402Z,133.95
2019-04-03T11:00:22.087Z,133.47
2019-04-03T11:02:50.418Z,133.45
2019-04-03T11:05:17.776Z,132.52
2019-04-03T11:07:45.439Z,132.82
2019-04-03T11:10:13.522Z,132.50
2019-04-03T11:12:41.992Z,133.72
2019-04-03T11:15:12.641Z,133.52
2019-04-03T11:17:40.546Z,135.70
2019-04-03T11:20:11.941Z,134.00
2019-04-03T11:22:43.398Z,133.78
2019-04-03T11:25:14.775Z,135.00
2019-04-03T11:27:44.778Z,135.80
2019-04-03T11:30:18.210Z,139.00
2019-04-03T11:32:44.018Z,134.52
2019-04-03T11:35:11.696Z,134.78
2019-04-03T11:37:40.876Z,136.55
2019-04-03T11:40:12.083Z,136.52
2019-04-03T11:42:39.248Z,135.40
2019-04-03T11:45:07.061Z,137.22
2019-04-03T11:47:35.002Z,139.55
2019-04-03T11:50:02.329Z,139.37
2019-04-03T11:52:29.785Z,139.30
2019-04-03T11:54:57.269Z,139.70
2019-04-03T11:57:26.813Z,138.62
2019-04-03T11:59:55.538Z,137.68
2019-04-03T12:02:23.891Z,137.77
2019-04-03T12:04:50.876Z,139.22
2019-04-03T12:07:18.646Z,140.20
2019-04-03T12:09:45.974Z,139.32
2019-04-03T12:12:13.508Z,139.07
2019-04-03T12:14:40.718Z,138.22
2019-04-03T12:17:13.581Z,136.92
2019-04-03T12:19:41.336Z,139.40
2019-04-03T12:22:08.910Z,138.00
2019-04-03T12:24:36.292Z,139.62
2019-04-03T12:27:03.826Z,140.55
2019-04-03T12:29:37.560Z,138.70
2019-04-03T12:32:09.045Z,138.90
2019-04-03T12:34:38.637Z,138.47
2019-04-03T12:37:09.364Z,138.55
2019-04-03T12:39:46.232Z,139.72
2019-04-03T12:42:19.981Z,141.62
2019-04-03T12:44:52.119Z,140.47
2019-04-03T12:47:32.062Z,140.68
2019-04-03T12:50:03.097Z,139.07
2019-04-03T12:52:32.029Z,137.88
2019-04-03T12:55:00.869Z,139.40
2019-04-03T12:57:28.317Z,139.25
2019-04-03T12:59:55.752Z,140.45
2019-04-03T13:02:25.018Z,142.90
2019-04-03T13:04:52.037Z,139.80
2019-04-03T13:07:29.543Z,136.57
2019-04-03T13:09:59.100Z,139.30
2019-04-03T13:12:27.988Z,137.07
2019-04-03T13:14:55.289Z,138.18
2019-04-03T13:17:22.565Z,137.55
2019-04-03T13:19:55.129Z,137.77
2019-04-03T13:22:22.479Z,140.73
2019-04-03T13:24:50.124Z,139.22
2019-04-03T13:27:18.844Z,137.22
2019-04-03T13:29:47.023Z,138.57
2019-04-03T13:32:16.449Z,140.18
2019-04-03T13:34:43.314Z,140.97
2019-04-03T13:37:11.761Z,140.37
2019-04-03T13:39:39.349Z,140.03
2019-04-03T13:42:07.289Z,140.20
2019-04-03T13:44:36.790Z,141.57
2019-04-03T13:47:04.381Z,139.88
2019-04-03T13:52:49.650Z,141.28
2019-04-03T13:55:18.832Z,141.32
2019-04-03T13:57:46.953Z,143.10
2019-04-03T14:00:21.891Z,141.88
2019-04-03T14:02:45.999Z,141.20
2019-04-03T14:05:13.312Z,142.05
2019-04-03T14:07:41.871Z,140.25
2019-04-03T14:10:11.002Z,140.55
2019-04-03T14:12:44.198Z,141.62
2019-04-03T14:15:10.153Z,139.97
2019-04-03T14:17:37.313Z,143.20
2019-04-03T14:20:05.080Z,140.30
2019-04-03T14:22:32.564Z,139.12
2019-04-03T14:25:01.997Z,140.75
2019-04-03T14:27:31.256Z,141.70
2019-04-03T14:30:01.194Z,139.20
2019-04-03T14:32:28.641Z,140.10
2019-04-03T14:35:05.312Z,140.37
2019-04-03T14:37:26.721Z,140.88
2019-04-03T14:39:54.417Z,140.07
2019-04-03T14:42:21.876Z,140.92
2019-04-03T14:44:49.362Z,140.47
2019-04-03T14:47:16.926Z,140.20
2019-04-03T14:49:44.925Z,140.95
2019-04-03T14:52:13.176Z,141.00
2019-04-03T14:55:20.288Z,138.18
2019-04-03T14:58:26.894Z,139.10
2019-04-03T15:00:54.307Z,136.52
2019-04-03T15:03:21.864Z,137.12
2019-04-03T15:05:49.148Z,137.22
2019-04-03T15:08:16.414Z,138.95
2019-04-03T15:10:43.844Z,136.10
2019-04-03T15:13:14.459Z,137.65
2019-04-03T15:15:42.390Z,137.45
2019-04-03T15:18:10.586Z,138.45
2019-04-03T15:20:38.467Z,137.75
2019-04-03T15:23:06.566Z,136.65
2019-04-03T15:25:34.324Z,136.12
2019-04-03T15:28:01.849Z,135.05
2019-04-03T15:30:29.523Z,137.70
2019-04-03T15:32:56.595Z,136.20
2019-04-03T15:35:24.315Z,135.12
2019-04-03T15:37:52.514Z,134.97
2019-04-03T15:40:20.796Z,138.03
2019-04-03T15:42:48.093Z,134.25
2019-04-03T15:45:16.192Z,135.93
2019-04-03T15:47:46.806Z,136.65
2019-04-03T15:50:16.284Z,135.72
2019-04-03T15:52:48.252Z,134.57
2019-04-03T15:55:18.704Z,137.52
2019-04-03T15:57:51.736Z,137.10
2019-04-03T16:00:18.021Z,138.68
2019-04-03T16:02:47.000Z,139.30
2019-04-03T16:05:17.855Z,137.47
2019-04-03T16:07:48.769Z,135.43
2019-04-03T16:10:21.766Z,135.00
2019-04-03T16:12:50.976Z,139.15
2019-04-03T16:15:20.206Z,135.35
2019-04-03T16:17:54.384Z,138.95
2019-04-03T16:20:25.288Z,137.60
2019-04-03T16:22:54.850Z,134.00
2019-04-03T16:25:25.514Z,135.18
2019-04-03T16:27:54.552Z,132.82
2019-04-03T16:30:21.868Z,135.20
2019-04-03T16:32:50.136Z,133.75
2019-04-03T16:35:17.569Z,135.32
2019-04-03T16:37:44.748Z,135.22
2019-04-03T16:40:16.933Z,132.70
2019-04-03T16:42:47.591Z,132.97
2019-04-03T16:45:14.813Z,133.87
2019-04-03T16:47:45.260Z,134.05
2019-04-03T16:50:13.717Z,134.65
2019-04-03T16:52:41.166Z,136.07
2019-04-03T16:55:08.587Z,134.50
2019-04-03T16:57:39.401Z,135.30
2019-04-03T17:00:10.039Z,133.43
2019-04-03T17:02:39.418Z,135.32
2019-04-03T17:05:10.462Z,134.97
2019-04-03T17:07:39.179Z,136.97
2019-04-03T17:10:09.413Z,135.85
2019-04-03T17:12:35.922Z,135.85
2019-04-03T17:15:06.744Z,137.50
2019-04-03T17:17:33.922Z,137.40
2019-04-03T17:20:01.411Z,135.48
2019-04-03T17:22:28.727Z,134.65
2019-04-03T17:24:56.537Z,134.95
2019-04-03T17:27:29.658Z,133.97
2019-04-03T17:29:56.196Z,135.63
2019-04-03T17:32:24.657Z,134.05
2019-04-03T17:34:53.692Z,133.45
2019-04-03T17:37:25.481Z,134.67
2019-04-03T17:39:53.607Z,134.52
2019-04-03T17:42:20.804Z,134.47
2019-04-03T17:44:48.064Z,134.78
2019-04-03T17:47:19.415Z,134.32
2019-04-03T17:49:47.499Z,133.72
2019-04-03T17:52:14.936Z,134.43
2019-04-03T17:54:42.135Z,133.52
2019-04-03T17:57:09.244Z,135.15
2019-04-03T17:59:41.550Z,136.32
2019-04-03T18:02:12.411Z,135.93
2019-04-03T18:04:42.505Z,135.60
2019-04-03T18:07:11.932Z,136.68
2019-04-03T18:09:41.804Z,134.30
2019-04-03T18:12:07.892Z,134.93
2019-04-03T18:14:36.118Z,135.40
2019-04-03T18:17:03.923Z,135.90
2019-04-03T18:19:37.840Z,134.30
2019-04-03T18:22:07.536Z,136.47
2019-04-03T18:24:39.436Z,134.70
2019-04-03T18:27:08.000Z,134.63
2019-04-03T18:29:37.314Z,135.65
2019-04-03T18:32:07.476Z,136.28
2019-04-03T18:34:37.448Z,133.63
2019-04-03T18:37:07.347Z,136.50
2019-04-03T18:39:36.759Z,135.57
2019-04-03T18:42:06.296Z,136.37
2019-04-03T18:44:36.627Z,135.03
2019-04-03T18:47:04.954Z,134.67
2019-04-03T18:49:35.108Z,135.30
2019-04-03T18:52:11.337Z,135.03
2019-04-03T18:54:45.651Z,138.72
2019-04-03T18:57:28.276Z,134.95
2019-04-03T18:59:56.472Z,134.52
2019-04-03T19:02:26.918Z,134.90
2019-04-03T19:05:02.248Z,135.43
2019-04-03T19:07:33.662Z,135.15
2019-04-03T19:10:08.024Z,134.82
2019-04-03T19:12:36.216Z,136.07
2019-04-03T19:15:04.297Z,137.05
2019-04-03T19:17:35.032Z,135.85
2019-04-03T19:20:11.284Z,134.60
2019-04-03T19:23:01.563Z,135.15
2019-04-03T19:25:38.276Z,135.68
2019-04-03T19:28:05.912Z,134.93
2019-04-03T19:30:40.805Z,134.35
2019-04-03T19:33:09.774Z,134.75
2019-04-03T19:35:37.241Z,134.25
2019-04-03T19:38:05.079Z,134.60
2019-04-03T19:40:51.473Z,134.30
2019-04-03T19:43:18.568Z,134.12
2019-04-03T19:45:46.791Z,134.67
2019-04-03T19:48:14.010Z,135.70
2019-04-03T19:50:42.443Z,135.03
2019-04-03T19:53:12.949Z,134.35
2019-04-03T19:55:39.598Z,133.95
2019-04-03T19:58:06.907Z,134.93
2019-04-03T20:00:35.502Z,136.35
2019-04-03T20:03:04.790Z,136.40
2019-04-03T20:05:31.912Z,135.85
2019-04-03T20:07:59.452Z,135.80
2019-04-03T20:10:27.004Z,134.10
2019-04-03T20:12:54.369Z,134.80
2019-04-03T20:15:23.391Z,136.28
2019-04-03T20:17:50.639Z,137.18
2019-04-03T20:20:17.957Z,135.52
2019-04-03T20:22:47.768Z,136.32
2019-04-03T20:25:15.349Z,135.32
2019-04-03T20:27:42.852Z,136.00
2019-04-03T20:30:22.749Z,135.78
2019-04-03T20:32:50.013Z,133.15
2019-04-03T20:35:18.651Z,133.30
2019-04-03T20:37:52.538Z,132.85
2019-04-03T20:40:25.251Z,131.95
2019-04-03T20:43:00.765Z,132.22
2019-04-03T20:45:34.507Z,133.55
2019-04-03T20:48:03.485Z,132.15
2019-04-03T20:50:43.287Z,132.50
2019-04-03T20:53:17.140Z,132.95
2019-04-03T20:56:34.154Z,133.78
2019-04-03T20:59:11.034Z,132.32
2019-04-03T21:01:42.375Z,133.45
2019-04-03T21:04:09.569Z,134.75
2019-04-03T21:06:37.432Z,134.00
2019-04-03T21:09:05.766Z,136.47
2019-04-03T21:11:37.095Z,137.32
2019-04-03T21:14:06.036Z,135.88
2019-04-03T21:16:33.646Z,134.60
2019-04-03T21:19:05.055Z,134.22
2019-04-03T21:21:32.662Z,134.60
2019-04-03T21:24:03.953Z,134.30
2019-04-03T21:26:32.022Z,133.25
2019-04-03T21:28:59.302Z,134.10
2019-04-03T21:31:27.577Z,134.27
2019-04-03T21:33:55.499Z,135.63
2019-04-03T21:36:27.201Z,134.90
2019-04-03T21:38:54.390Z,134.90
2019-04-03T21:41:26.841Z,135.20
2019-04-03T21:43:55.470Z,133.47
2019-04-03T21:46:25.448Z,133.32
2019-04-03T21:48:52.682Z,133.25
2019-04-03T21:51:23.296Z,132.78
2019-04-03T21:53:56.466Z,133.45
2019-04-03T21:56:23.341Z,135.12
2019-04-03T21:58:50.380Z,134.40
2019-04-03T22:01:23.400Z,133.97
2019-04-03T22:03:51.676Z,132.18
2019-04-03T22:06:19.069Z,132.70
2019-04-03T22:08:47.617Z,132.55
2019-04-03T22:11:14.657Z,133.03
2019-04-03T22:13:42.140Z,135.37
2019-04-03T22:16:11.984Z,133.12
2019-04-03T22:18:39.289Z,134.43
2019-04-03T22:21:06.789Z,134.63
2019-04-03T22:23:35.985Z,134.72
2019-04-03T22:26:02.940Z,134.50
2019-04-03T22:28:31.184Z,133.75
2019-04-03T22:30:58.454Z,133.40
2019-04-03T22:33:27.669Z,135.35
2019-04-03T22:35:55.466Z,133.70
2019-04-03T22:38:22.738Z,134.27
2019-04-03T22:40:52.496Z,134.03
2019-04-03T22:43:19.932Z,133.80
2019-04-03T22:45:47.091Z,133.43
2019-04-03T22:48:15.224Z,134.55
2019-04-03T22:50:42.463Z,134.30
2019-04-03T22:53:11.260Z,134.95
2019-04-03T22:55:38.803Z,133.32
2019-04-03T22:58:05.859Z,134.35
2019-04-03T23:00:35.000Z,134.78
2019-04-03T23:03:02.844Z,136.65
2019-04-03T23:05:30.801Z,134.45
2019-04-03T23:07:57.844Z,137.52
2019-04-03T23:10:25.280Z,135.48
2019-04-03T23:12:52.307Z,135.90
2019-04-03T23:15:19.401Z,134.95
2019-04-03T23:17:46.537Z,136.35
2019-04-03T23:20:13.560Z,136.47
2019-04-03T23:22:40.697Z,139.32
2019-04-03T23:25:09.017Z,137.85
2019-04-03T23:27:37.949Z,138.28
2019-04-03T23:30:10.038Z,138.28
2019-04-03T23:32:37.924Z,140.28
2019-04-03T23:35:05.199Z,141.50
2019-04-03T23:37:32.256Z,138.68
2019-04-03T23:40:01.008Z,140.03
2019-04-03T23:42:29.840Z,139.07
2019-04-03T23:44:56.889Z,138.90
2019-04-03T23:47:24.015Z,140.57
2019-04-03T23:49:51.684Z,140.95
2019-04-03T23:52:19.062Z,141.77
2019-04-03T23:54:47.304Z,142.55
2019-04-03T23:57:14.349Z,141.05
2019-04-03T23:59:44.467Z,141.20
